Portada
METAR-TAF:

METAR-TAF

Aeroports :

Aurora, Illinois, Estats Units d'Amèrica

latitud: 41-46-12N, longitud: 088-28-53W, altitud: 215 m

Observació

L'informe es va fer fa 37 minuts, a les 01:52 UTC
Vent 4 kt del Nord-Est
Temperatura 22°C
Humitat 94%
Pressió 1013 hPa
Visibilitat: 16.1 km
Cel ennuvolat a una alçada de 6000 ft
Cel cobert a una alçada de 7500 ft

METAR: KARR 280152Z AUTO 05004KT 10SM BKN060 OVC075 22/21 A2990 RMK AO2 LTG DSNT SW SLP119 T02220206

Hora: 21:29 (02:29 UTC)


TAF: manca

Observacions i pronòstics meteorològics de més de 4000 aeroports (METAR i TAF).

Les estacions disponibles són els punts grocs i vermells al mapa.

Posi el ratolí al punt desitjat per veure el nom de l'estació.

Feu clic per veure les observacions i els pronòstics meteorològics.

Per canviar el mapa: feu clic els botons verds amb una creu de color negre per apropar; al botó verd amb un guió per allunyar la imatge; o en les fletxes verdes per a mapes adjacents.


METAR-TAF: